createdAt,value
2023-04-24T00:02:58.501Z,11.27
2023-04-24T00:08:01.148Z,11.27
2023-04-24T00:13:03.311Z,11.26
2023-04-24T00:18:05.431Z,11.25
2023-04-24T00:23:07.724Z,11.24
2023-04-24T00:28:09.791Z,11.23
2023-04-24T00:33:11.676Z,11.23
2023-04-24T00:38:13.971Z,11.25
2023-04-24T00:43:18.260Z,11.27
2023-04-24T00:48:21.520Z,11.31
2023-04-24T00:53:23.448Z,11.35
2023-04-24T00:58:26.147Z,11.37
2023-04-24T01:03:32.808Z,11.39
2023-04-24T01:08:36.253Z,11.40
2023-04-24T01:13:39.618Z,11.41
2023-04-24T01:18:42.216Z,11.41
2023-04-24T01:23:47.271Z,11.41
2023-04-24T01:28:49.278Z,11.39
2023-04-24T01:33:52.294Z,11.38
2023-04-24T01:38:54.771Z,11.37
2023-04-24T01:43:59.301Z,11.35
2023-04-24T01:49:02.880Z,11.35
2023-04-24T01:54:04.726Z,11.34
2023-04-24T01:59:08.451Z,11.32
2023-04-24T02:04:10.472Z,11.32
2023-04-24T02:09:12.675Z,11.32
2023-04-24T02:14:15.326Z,11.32
2023-04-24T02:19:17.472Z,11.32
2023-04-24T02:24:19.321Z,11.33
2023-04-24T02:29:21.399Z,11.34
2023-04-24T02:34:25.100Z,11.35
2023-04-24T02:39:27.506Z,11.37
2023-04-24T02:44:29.869Z,11.39
2023-04-24T02:49:31.977Z,11.41
2023-04-24T02:54:33.854Z,11.44
2023-04-24T02:59:36.373Z,11.46
2023-04-24T03:04:38.474Z,11.49
2023-04-24T03:09:41.217Z,11.51
2023-04-24T03:14:44.085Z,11.50
2023-04-24T03:19:46.107Z,11.48
2023-04-24T03:24:48.448Z,11.45
2023-04-24T03:29:56.215Z,11.41
2023-04-24T03:35:01.839Z,11.37
2023-04-24T03:40:05.590Z,11.33
2023-04-24T03:45:10.819Z,11.31
2023-04-24T03:50:14.648Z,11.28
2023-04-24T03:55:17.432Z,11.27
2023-04-24T04:00:22.183Z,11.24
2023-04-24T04:05:28.026Z,11.25
2023-04-24T04:10:30.271Z,11.27
2023-04-24T04:15:33.075Z,11.31
2023-04-24T04:20:35.502Z,11.39
2023-04-24T04:25:37.570Z,11.46
2023-04-24T04:30:41.231Z,11.52
2023-04-24T04:35:44.780Z,11.56
2023-04-24T04:40:48.159Z,11.63
2023-04-24T04:45:52.855Z,11.71
2023-04-24T04:51:07.015Z,11.78
2023-04-24T04:56:09.105Z,11.86
2023-04-24T05:01:16.174Z,11.95
2023-04-24T05:06:23.801Z,12.05
2023-04-24T05:11:26.869Z,12.16
2023-04-24T05:16:32.260Z,12.29
2023-04-24T05:21:35.371Z,12.41
2023-04-24T05:26:37.439Z,12.56
2023-04-24T05:31:39.998Z,12.75
2023-04-24T05:36:42.204Z,12.99
2023-04-24T05:41:45.123Z,13.29
2023-04-24T05:46:47.127Z,13.60
2023-04-24T05:51:49.805Z,13.88
2023-04-24T05:56:52.536Z,14.16
2023-04-24T06:02:03.132Z,14.42
2023-04-24T06:07:05.766Z,14.70
2023-04-24T06:12:09.364Z,15.07
2023-04-24T06:17:25.300Z,15.51
2023-04-24T06:22:27.557Z,15.89
2023-04-24T06:27:29.487Z,16.34
2023-04-24T06:32:32.236Z,16.86
2023-04-24T06:37:35.326Z,17.42
2023-04-24T06:42:38.167Z,17.90
2023-04-24T06:47:43.792Z,18.32
2023-04-24T06:52:49.606Z,18.75
2023-04-24T06:57:51.535Z,19.12
2023-04-24T07:02:54.516Z,19.37
2023-04-24T07:07:56.616Z,19.53
2023-04-24T07:12:58.746Z,19.69
2023-04-24T07:18:03.339Z,19.79
2023-04-24T07:23:06.896Z,19.78
2023-04-24T07:28:09.041Z,19.75
2023-04-24T07:33:14.225Z,19.78
2023-04-24T07:38:16.411Z,19.80
2023-04-24T07:43:21.428Z,19.90
2023-04-24T07:48:23.552Z,19.94
2023-04-24T07:53:25.995Z,20.07
2023-04-24T07:58:27.946Z,20.19
2023-04-24T08:03:30.261Z,20.33
2023-04-24T08:08:32.394Z,20.46
2023-04-24T08:13:34.393Z,20.58
2023-04-24T08:18:37.135Z,20.81
2023-04-24T08:23:39.490Z,21.04
2023-04-24T08:28:41.386Z,21.14
2023-04-24T08:33:46.183Z,21.12
2023-04-24T08:38:48.320Z,21.18
2023-04-24T08:43:51.876Z,21.31
2023-04-24T08:48:54.304Z,21.43
2023-04-24T08:53:57.148Z,21.56
2023-04-24T08:58:59.088Z,21.64
2023-04-24T09:04:05.331Z,21.89
2023-04-24T09:09:09.274Z,22.25
2023-04-24T09:14:12.189Z,22.54
2023-04-24T09:19:14.381Z,22.83
2023-04-24T09:24:23.568Z,23.01
2023-04-24T09:29:25.901Z,23.14
2023-04-24T09:34:28.578Z,23.25
2023-04-24T09:39:30.432Z,23.48
2023-04-24T09:44:35.742Z,23.70
2023-04-24T09:49:40.301Z,23.79
2023-04-24T09:54:42.437Z,23.74
2023-04-24T09:59:46.922Z,23.94
2023-04-24T10:04:57.797Z,24.04
2023-04-24T10:10:00.813Z,23.96
2023-04-24T10:15:04.058Z,23.89
2023-04-24T10:20:07.727Z,23.83
2023-04-24T10:25:11.216Z,23.77
2023-04-24T10:30:14.863Z,23.36
2023-04-24T10:35:19.477Z,23.04
2023-04-24T10:40:28.330Z,22.70
2023-04-24T10:45:30.685Z,22.39
2023-04-24T10:50:53.278Z,21.89
2023-04-24T10:56:04.638Z,21.49
2023-04-24T11:01:07.233Z,21.24
2023-04-24T11:06:10.190Z,21.20
2023-04-24T11:11:14.586Z,21.27
2023-04-24T11:16:23.283Z,21.26
2023-04-24T11:21:26.124Z,21.16
2023-04-24T11:26:33.630Z,21.12
2023-04-24T11:31:37.228Z,21.06
2023-04-24T11:36:39.829Z,21.10
2023-04-24T11:41:42.153Z,21.19
2023-04-24T11:46:44.162Z,21.24
2023-04-24T11:51:53.166Z,21.04
2023-04-24T11:56:57.504Z,20.79
2023-04-24T12:01:59.484Z,20.69
2023-04-24T12:07:06.118Z,20.41
2023-04-24T12:12:07.985Z,20.24
2023-04-24T12:17:09.988Z,20.01
2023-04-24T12:22:12.256Z,19.70
2023-04-24T12:27:21.592Z,19.42
2023-04-24T12:32:23.839Z,19.42
2023-04-24T12:37:27.484Z,19.38
2023-04-24T12:42:31.846Z,19.58
2023-04-24T12:47:36.650Z,19.86
2023-04-24T12:52:39.991Z,20.02
2023-04-24T12:57:42.053Z,20.16
2023-04-24T13:02:44.345Z,20.08
2023-04-24T13:07:46.660Z,19.83
2023-04-24T13:12:48.504Z,19.53
2023-04-24T13:17:51.534Z,19.42
2023-04-24T13:22:54.373Z,19.25
2023-04-24T13:27:56.721Z,19.07
2023-04-24T13:32:58.718Z,18.97
2023-04-24T13:38:02.582Z,18.89
2023-04-24T13:43:04.597Z,18.89
2023-04-24T13:48:06.894Z,18.61
2023-04-24T13:53:09.101Z,18.26
2023-04-24T13:58:11.559Z,17.82
2023-04-24T14:03:13.629Z,17.47
2023-04-24T14:08:15.865Z,17.12
2023-04-24T14:13:18.442Z,16.86
2023-04-24T14:18:21.214Z,16.66
2023-04-24T14:23:23.095Z,16.50
2023-04-24T14:28:25.722Z,16.34
2023-04-24T14:33:27.524Z,16.28
2023-04-24T14:38:31.023Z,16.33
2023-04-24T14:43:33.807Z,16.33
2023-04-24T14:48:36.398Z,16.19
2023-04-24T14:53:38.345Z,16.08
2023-04-24T14:58:40.494Z,16.03
2023-04-24T15:03:42.704Z,15.97
2023-04-24T15:08:46.916Z,15.89
2023-04-24T15:13:50.970Z,15.85
2023-04-24T15:18:53.807Z,15.74
2023-04-24T15:23:57.061Z,15.53
2023-04-24T15:28:59.215Z,15.32
2023-04-24T15:34:01.096Z,15.11
2023-04-24T15:39:05.673Z,14.96
2023-04-24T15:44:09.388Z,14.85
2023-04-24T15:49:11.903Z,14.81
2023-04-24T15:54:14.633Z,14.79
2023-04-24T15:59:18.306Z,14.77
2023-04-24T16:04:20.369Z,14.68
2023-04-24T16:09:22.516Z,14.57
2023-04-24T16:14:25.601Z,14.44
2023-04-24T16:19:28.966Z,14.35
2023-04-24T16:24:31.230Z,14.25
2023-04-24T16:29:33.566Z,14.21
2023-04-24T16:34:35.353Z,14.11
2023-04-24T16:39:38.883Z,14.03
2023-04-24T16:44:42.094Z,14.01
2023-04-24T16:49:44.337Z,13.93
2023-04-24T16:54:46.237Z,13.80
2023-04-24T16:59:48.235Z,13.66
2023-04-24T17:04:50.066Z,13.55
2023-04-24T17:09:52.673Z,13.50
2023-04-24T17:14:54.490Z,13.43
2023-04-24T17:19:56.685Z,13.36
2023-04-24T17:24:58.817Z,13.29
2023-04-24T17:30:01.251Z,13.24
2023-04-24T17:35:03.638Z,13.17
2023-04-24T17:40:07.371Z,13.10
2023-04-24T17:45:10.096Z,13.04
2023-04-24T17:50:12.612Z,12.97
2023-04-24T17:55:15.068Z,12.92
2023-04-24T18:00:17.417Z,12.87
2023-04-24T18:05:19.258Z,12.80
2023-04-24T18:10:21.929Z,12.71
2023-04-24T18:15:24.543Z,12.65
2023-04-24T18:20:27.756Z,12.57
2023-04-24T18:25:29.928Z,12.49
2023-04-24T18:30:32.575Z,12.43
2023-04-24T18:35:34.438Z,12.40
2023-04-24T18:40:36.936Z,12.32
2023-04-24T18:45:38.910Z,12.27
2023-04-24T18:50:41.378Z,12.25
2023-04-24T18:55:43.452Z,12.20
2023-04-24T19:00:46.098Z,12.13
2023-04-24T19:05:48.066Z,12.06
2023-04-24T19:10:51.140Z,12.04
2023-04-24T19:15:53.069Z,12.03
2023-04-24T19:20:56.190Z,11.98
2023-04-24T19:25:58.154Z,11.96
2023-04-24T19:31:00.695Z,11.91
2023-04-24T19:36:02.779Z,11.86
2023-04-24T19:41:05.038Z,11.81
2023-04-24T19:46:07.037Z,11.76
2023-04-24T19:51:09.126Z,11.71
2023-04-24T19:56:11.108Z,11.66
2023-04-24T20:01:13.526Z,11.61
2023-04-24T20:06:15.501Z,11.55
2023-04-24T20:11:17.630Z,11.50
2023-04-24T20:16:19.575Z,11.43
2023-04-24T20:21:22.003Z,11.34
2023-04-24T20:26:23.961Z,11.24
2023-04-24T20:31:26.119Z,11.13
2023-04-24T20:36:28.649Z,11.03
2023-04-24T20:41:30.926Z,10.93
2023-04-24T20:46:33.576Z,10.83
2023-04-24T20:51:37.366Z,10.76
2023-04-24T20:56:39.539Z,10.71
2023-04-24T21:01:44.252Z,10.63
2023-04-24T21:06:47.947Z,10.56
2023-04-24T21:11:52.778Z,10.50
2023-04-24T21:16:58.514Z,10.45
2023-04-24T21:22:01.220Z,10.43
2023-04-24T21:27:03.630Z,10.42
2023-04-24T21:32:05.796Z,10.40
2023-04-24T21:37:07.654Z,10.39
2023-04-24T21:42:29.631Z,10.41
2023-04-24T21:47:38.832Z,10.42
2023-04-24T21:52:42.641Z,10.44
2023-04-24T21:57:44.933Z,10.45
2023-04-24T22:02:47.226Z,10.44
2023-04-24T22:07:50.797Z,10.42
2023-04-24T22:12:53.026Z,10.40
2023-04-24T22:17:54.773Z,10.38
2023-04-24T22:22:57.332Z,10.36
2023-04-24T22:27:59.419Z,10.36
2023-04-24T22:33:01.597Z,10.37
2023-04-24T22:38:04.106Z,10.36
2023-04-24T22:43:06.599Z,10.35
2023-04-24T22:48:08.572Z,10.37
2023-04-24T22:53:10.868Z,10.39
2023-04-24T22:58:12.828Z,10.39
2023-04-24T23:03:15.029Z,10.39
2023-04-24T23:08:17.397Z,10.35
2023-04-24T23:13:44.507Z,10.32
2023-04-24T23:18:46.974Z,10.30
2023-04-24T23:23:51.429Z,10.27
2023-04-24T23:28:53.637Z,10.27
2023-04-24T23:33:55.702Z,10.25
2023-04-24T23:38:59.775Z,10.23
2023-04-24T23:44:03.686Z,10.21
2023-04-24T23:49:07.530Z,10.21
2023-04-24T23:54:10.213Z,10.24
2023-04-24T23:59:12.413Z,10.28
